sensor_id;sensor_type;location;lat;lon;timestamp;pressure;altitude;pressure_sealevel;temperature;humidity
54144;BME280;40050;47.324;18.792;2022-07-05T00:01:01;1002.39;;;28.02;48.31
54144;BME280;40050;47.324;18.792;2022-07-05T00:03:02;1002.49;;;28.04;48.30
54144;BME280;40050;47.324;18.792;2022-07-05T00:05:03;1002.51;;;28.06;48.36
54144;BME280;40050;47.324;18.792;2022-07-05T00:07:04;1002.45;;;28.02;48.45
54144;BME280;40050;47.324;18.792;2022-07-05T00:11:19;1002.29;;;27.95;48.54
54144;BME280;40050;47.324;18.792;2022-07-05T00:13:20;1002.24;;;27.97;48.53
54144;BME280;40050;47.324;18.792;2022-07-05T00:15:21;1002.24;;;27.93;48.63
54144;BME280;40050;47.324;18.792;2022-07-05T00:17:22;1002.14;;;27.90;48.63
54144;BME280;40050;47.324;18.792;2022-07-05T00:19:23;1002.12;;;27.90;48.81
54144;BME280;40050;47.324;18.792;2022-07-05T00:21:24;1002.12;;;27.91;48.82
54144;BME280;40050;47.324;18.792;2022-07-05T00:23:25;1002.14;;;27.92;48.86
54144;BME280;40050;47.324;18.792;2022-07-05T00:25:31;1002.15;;;27.92;48.85
54144;BME280;40050;47.324;18.792;2022-07-05T00:27:31;1002.12;;;27.89;48.95
54144;BME280;40050;47.324;18.792;2022-07-05T00:29:32;1002.13;;;27.90;48.91
54144;BME280;40050;47.324;18.792;2022-07-05T00:31:35;1002.16;;;27.92;48.62
54144;BME280;40050;47.324;18.792;2022-07-05T00:33:39;1002.12;;;27.85;48.30
54144;BME280;40050;47.324;18.792;2022-07-05T00:35:40;1002.12;;;27.80;48.29
54144;BME280;40050;47.324;18.792;2022-07-05T00:37:41;1002.10;;;27.79;47.84
54144;BME280;40050;47.324;18.792;2022-07-05T00:44:43;1002.03;;;27.73;47.60
54144;BME280;40050;47.324;18.792;2022-07-05T00:46:45;1002.03;;;27.71;47.48
54144;BME280;40050;47.324;18.792;2022-07-05T00:48:48;1002.08;;;27.73;47.58
54144;BME280;40050;47.324;18.792;2022-07-05T00:50:49;1002.07;;;27.68;47.42
54144;BME280;40050;47.324;18.792;2022-07-05T00:52:56;1002.10;;;27.69;47.40
54144;BME280;40050;47.324;18.792;2022-07-05T00:54:57;1002.05;;;27.67;47.45
54144;BME280;40050;47.324;18.792;2022-07-05T00:56:59;1002.00;;;27.65;47.44
54144;BME280;40050;47.324;18.792;2022-07-05T00:59:00;1002.02;;;27.65;47.50
54144;BME280;40050;47.324;18.792;2022-07-05T01:01:02;1002.02;;;27.65;47.54
54144;BME280;40050;47.324;18.792;2022-07-05T01:03:03;1002.00;;;27.64;47.52
54144;BME280;40050;47.324;18.792;2022-07-05T01:05:05;1002.02;;;27.61;47.56
54144;BME280;40050;47.324;18.792;2022-07-05T01:07:06;1002.05;;;27.62;47.80
54144;BME280;40050;47.324;18.792;2022-07-05T01:09:07;1002.10;;;27.60;47.90
54144;BME280;40050;47.324;18.792;2022-07-05T01:11:10;1002.10;;;27.57;47.76
54144;BME280;40050;47.324;18.792;2022-07-05T01:13:11;1002.07;;;27.51;48.02
54144;BME280;40050;47.324;18.792;2022-07-05T01:15:12;1002.01;;;27.49;48.21
54144;BME280;40050;47.324;18.792;2022-07-05T01:20:06;1001.94;;;27.51;48.44
54144;BME280;40050;47.324;18.792;2022-07-05T01:22:18;1001.83;;;27.42;48.39
54144;BME280;40050;47.324;18.792;2022-07-05T01:24:24;1001.80;;;27.36;48.45
54144;BME280;40050;47.324;18.792;2022-07-05T01:26:31;1001.82;;;27.34;48.34
54144;BME280;40050;47.324;18.792;2022-07-05T01:28:35;1001.95;;;27.25;48.60
54144;BME280;40050;47.324;18.792;2022-07-05T01:30:38;1001.98;;;27.20;48.33
54144;BME280;40050;47.324;18.792;2022-07-05T01:32:39;1001.98;;;27.18;48.44
54144;BME280;40050;47.324;18.792;2022-07-05T01:34:49;1001.99;;;27.19;48.53
54144;BME280;40050;47.324;18.792;2022-07-05T01:36:50;1001.96;;;27.15;48.38
54144;BME280;40050;47.324;18.792;2022-07-05T01:38:52;1001.89;;;27.12;48.52
54144;BME280;40050;47.324;18.792;2022-07-05T01:40:53;1001.89;;;27.11;48.47
54144;BME280;40050;47.324;18.792;2022-07-05T01:42:54;1001.90;;;27.10;48.49
54144;BME280;40050;47.324;18.792;2022-07-05T01:44:58;1001.91;;;27.12;48.31
54144;BME280;40050;47.324;18.792;2022-07-05T01:47:03;1001.96;;;27.12;48.55
54144;BME280;40050;47.324;18.792;2022-07-05T01:49:06;1002.02;;;27.09;48.69
54144;BME280;40050;47.324;18.792;2022-07-05T01:51:09;1001.98;;;27.06;48.74
54144;BME280;40050;47.324;18.792;2022-07-05T01:53:11;1001.96;;;27.03;48.80
54144;BME280;40050;47.324;18.792;2022-07-05T01:55:14;1001.88;;;26.94;48.94
54144;BME280;40050;47.324;18.792;2022-07-05T01:57:15;1001.89;;;26.98;48.99
54144;BME280;40050;47.324;18.792;2022-07-05T01:59:16;1001.87;;;27.02;48.91
54144;BME280;40050;47.324;18.792;2022-07-05T02:01:31;1001.92;;;27.01;49.05
54144;BME280;40050;47.324;18.792;2022-07-05T02:03:30;1001.90;;;26.99;48.99
54144;BME280;40050;47.324;18.792;2022-07-05T02:05:33;1001.88;;;26.98;49.23
54144;BME280;40050;47.324;18.792;2022-07-05T02:07:34;1001.85;;;26.94;49.30
54144;BME280;40050;47.324;18.792;2022-07-05T02:09:35;1001.82;;;26.95;49.08
54144;BME280;40050;47.324;18.792;2022-07-05T02:11:40;1001.84;;;26.96;48.95
54144;BME280;40050;47.324;18.792;2022-07-05T02:14:02;1001.84;;;26.90;49.17
54144;BME280;40050;47.324;18.792;2022-07-05T02:16:05;1001.85;;;26.85;49.24
54144;BME280;40050;47.324;18.792;2022-07-05T02:23:22;1001.87;;;26.93;49.20
54144;BME280;40050;47.324;18.792;2022-07-05T02:25:23;1001.90;;;26.92;49.34
54144;BME280;40050;47.324;18.792;2022-07-05T02:27:39;1001.95;;;26.91;49.20
54144;BME280;40050;47.324;18.792;2022-07-05T02:32:23;1002.04;;;27.01;48.79
54144;BME280;40050;47.324;18.792;2022-07-05T02:34:24;1002.06;;;27.03;48.62
54144;BME280;40050;47.324;18.792;2022-07-05T02:36:25;1002.05;;;26.99;48.57
54144;BME280;40050;47.324;18.792;2022-07-05T02:38:26;1002.14;;;27.00;48.68
54144;BME280;40050;47.324;18.792;2022-07-05T02:40:27;1002.16;;;26.98;48.54
54144;BME280;40050;47.324;18.792;2022-07-05T02:42:28;1002.07;;;26.95;48.40
54144;BME280;40050;47.324;18.792;2022-07-05T02:44:29;1002.03;;;26.94;48.46
54144;BME280;40050;47.324;18.792;2022-07-05T02:46:30;1001.99;;;26.95;48.52
54144;BME280;40050;47.324;18.792;2022-07-05T02:48:31;1001.92;;;26.94;48.28
54144;BME280;40050;47.324;18.792;2022-07-05T02:50:32;1001.95;;;26.93;48.23
54144;BME280;40050;47.324;18.792;2022-07-05T02:52:34;1001.92;;;26.93;48.36
54144;BME280;40050;47.324;18.792;2022-07-05T02:54:35;1001.92;;;26.93;48.55
54144;BME280;40050;47.324;18.792;2022-07-05T02:56:35;1001.92;;;26.94;48.53
54144;BME280;40050;47.324;18.792;2022-07-05T02:58:37;1001.89;;;26.93;48.74
54144;BME280;40050;47.324;18.792;2022-07-05T03:00:38;1001.96;;;26.92;48.37
54144;BME280;40050;47.324;18.792;2022-07-05T03:02:39;1001.95;;;26.89;48.42
54144;BME280;40050;47.324;18.792;2022-07-05T03:04:39;1001.87;;;26.87;48.34
54144;BME280;40050;47.324;18.792;2022-07-05T03:06:40;1001.90;;;26.89;48.42
54144;BME280;40050;47.324;18.792;2022-07-05T03:08:41;1001.92;;;26.91;48.11
54144;BME280;40050;47.324;18.792;2022-07-05T03:10:42;1001.92;;;26.90;48.38
54144;BME280;40050;47.324;18.792;2022-07-05T03:12:43;1001.94;;;26.89;48.33
54144;BME280;40050;47.324;18.792;2022-07-05T03:14:44;1001.95;;;26.87;48.38
54144;BME280;40050;47.324;18.792;2022-07-05T03:16:45;1001.97;;;26.84;48.54
54144;BME280;40050;47.324;18.792;2022-07-05T03:18:46;1001.99;;;26.85;48.56
54144;BME280;40050;47.324;18.792;2022-07-05T03:20:47;1002.05;;;26.82;48.61
54144;BME280;40050;47.324;18.792;2022-07-05T03:22:48;1002.08;;;26.82;48.67
54144;BME280;40050;47.324;18.792;2022-07-05T03:24:49;1002.11;;;26.82;48.74
54144;BME280;40050;47.324;18.792;2022-07-05T03:26:49;1002.08;;;26.78;48.86
54144;BME280;40050;47.324;18.792;2022-07-05T03:28:50;1002.10;;;26.76;49.02
54144;BME280;40050;47.324;18.792;2022-07-05T03:30:51;1002.13;;;26.77;49.19
54144;BME280;40050;47.324;18.792;2022-07-05T03:32:52;1002.16;;;26.77;49.21
54144;BME280;40050;47.324;18.792;2022-07-05T03:34:53;1002.20;;;26.74;49.16
54144;BME280;40050;47.324;18.792;2022-07-05T03:36:54;1002.19;;;26.69;49.48
54144;BME280;40050;47.324;18.792;2022-07-05T03:38:55;1002.27;;;26.75;48.96
54144;BME280;40050;47.324;18.792;2022-07-05T03:40:56;1002.35;;;26.70;49.20
54144;BME280;40050;47.324;18.792;2022-07-05T03:42:57;1002.36;;;26.68;49.43
54144;BME280;40050;47.324;18.792;2022-07-05T03:44:58;1002.37;;;26.66;49.48
54144;BME280;40050;47.324;18.792;2022-07-05T03:46:59;1002.41;;;26.65;49.55
54144;BME280;40050;47.324;18.792;2022-07-05T03:49:00;1002.42;;;26.67;49.41
54144;BME280;40050;47.324;18.792;2022-07-05T03:51:01;1002.42;;;26.67;49.41
54144;BME280;40050;47.324;18.792;2022-07-05T03:53:02;1002.40;;;26.69;49.51
54144;BME280;40050;47.324;18.792;2022-07-05T03:55:03;1002.41;;;26.68;49.56
54144;BME280;40050;47.324;18.792;2022-07-05T03:57:04;1002.32;;;26.68;49.39
54144;BME280;40050;47.324;18.792;2022-07-05T03:59:05;1002.36;;;26.70;49.33
54144;BME280;40050;47.324;18.792;2022-07-05T04:01:06;1002.39;;;26.68;49.14
54144;BME280;40050;47.324;18.792;2022-07-05T04:03:07;1002.40;;;26.71;48.66
54144;BME280;40050;47.324;18.792;2022-07-05T04:05:08;1002.37;;;26.69;48.60
54144;BME280;40050;47.324;18.792;2022-07-05T04:07:09;1002.32;;;26.66;48.56
54144;BME280;40050;47.324;18.792;2022-07-05T04:09:10;1002.35;;;26.69;48.38
54144;BME280;40050;47.324;18.792;2022-07-05T04:11:11;1002.34;;;26.65;48.38
54144;BME280;40050;47.324;18.792;2022-07-05T04:13:11;1002.27;;;26.64;48.22
54144;BME280;40050;47.324;18.792;2022-07-05T04:15:13;1002.31;;;26.65;48.34
54144;BME280;40050;47.324;18.792;2022-07-05T04:17:14;1002.27;;;26.66;48.12
54144;BME280;40050;47.324;18.792;2022-07-05T04:19:15;1002.21;;;26.71;48.24
54144;BME280;40050;47.324;18.792;2022-07-05T04:21:15;1002.11;;;26.73;48.13
54144;BME280;40050;47.324;18.792;2022-07-05T04:23:16;1002.03;;;26.73;48.08
54144;BME280;40050;47.324;18.792;2022-07-05T04:25:17;1002.06;;;26.74;48.37
54144;BME280;40050;47.324;18.792;2022-07-05T04:27:18;1002.03;;;26.78;48.35
54144;BME280;40050;47.324;18.792;2022-07-05T04:29:19;1001.93;;;26.82;48.19
54144;BME280;40050;47.324;18.792;2022-07-05T04:31:20;1001.92;;;26.88;48.22
54144;BME280;40050;47.324;18.792;2022-07-05T04:33:21;1001.97;;;26.92;47.90
54144;BME280;40050;47.324;18.792;2022-07-05T04:35:22;1001.99;;;26.95;47.87
54144;BME280;40050;47.324;18.792;2022-07-05T04:37:23;1001.99;;;26.98;47.58
54144;BME280;40050;47.324;18.792;2022-07-05T04:39:23;1002.04;;;27.06;47.45
54144;BME280;40050;47.324;18.792;2022-07-05T04:41:24;1002.07;;;27.08;47.49
54144;BME280;40050;47.324;18.792;2022-07-05T04:43:25;1002.17;;;27.11;47.20
54144;BME280;40050;47.324;18.792;2022-07-05T04:45:26;1002.14;;;27.14;47.37
54144;BME280;40050;47.324;18.792;2022-07-05T04:47:27;1002.12;;;27.17;47.03
54144;BME280;40050;47.324;18.792;2022-07-05T04:49:28;1002.15;;;27.18;46.93
54144;BME280;40050;47.324;18.792;2022-07-05T04:51:29;1002.16;;;27.15;47.30
54144;BME280;40050;47.324;18.792;2022-07-05T04:53:30;1002.11;;;27.16;47.35
54144;BME280;40050;47.324;18.792;2022-07-05T04:55:31;1002.06;;;27.16;47.09
54144;BME280;40050;47.324;18.792;2022-07-05T04:57:38;1002.04;;;27.21;47.20
54144;BME280;40050;47.324;18.792;2022-07-05T04:59:39;1002.05;;;27.21;47.14
54144;BME280;40050;47.324;18.792;2022-07-05T05:01:40;1002.05;;;27.25;46.78
54144;BME280;40050;47.324;18.792;2022-07-05T05:03:41;1002.11;;;27.26;46.57
54144;BME280;40050;47.324;18.792;2022-07-05T05:05:42;1002.19;;;27.26;46.55
54144;BME280;40050;47.324;18.792;2022-07-05T05:07:43;1002.25;;;27.26;46.77
54144;BME280;40050;47.324;18.792;2022-07-05T05:09:44;1002.35;;;27.29;47.20
54144;BME280;40050;47.324;18.792;2022-07-05T05:11:45;1002.36;;;27.32;47.25
54144;BME280;40050;47.324;18.792;2022-07-05T05:13:46;1002.34;;;27.36;47.27
54144;BME280;40050;47.324;18.792;2022-07-05T05:15:47;1002.32;;;27.34;47.57
54144;BME280;40050;47.324;18.792;2022-07-05T05:17:48;1002.33;;;27.39;47.73
54144;BME280;40050;47.324;18.792;2022-07-05T05:19:49;1002.41;;;27.41;47.63
54144;BME280;40050;47.324;18.792;2022-07-05T05:21:50;1002.39;;;27.40;47.66
54144;BME280;40050;47.324;18.792;2022-07-05T05:23:51;1002.36;;;27.42;47.61
54144;BME280;40050;47.324;18.792;2022-07-05T05:25:51;1002.33;;;27.43;47.54
54144;BME280;40050;47.324;18.792;2022-07-05T05:27:52;1002.28;;;27.42;47.49
54144;BME280;40050;47.324;18.792;2022-07-05T05:29:53;1002.30;;;27.40;47.96
54144;BME280;40050;47.324;18.792;2022-07-05T05:31:54;1002.26;;;27.41;47.80
54144;BME280;40050;47.324;18.792;2022-07-05T05:33:55;1002.27;;;27.39;47.80
54144;BME280;40050;47.324;18.792;2022-07-05T05:35:56;1002.28;;;27.38;47.94
54144;BME280;40050;47.324;18.792;2022-07-05T05:37:57;1002.35;;;27.36;48.18
54144;BME280;40050;47.324;18.792;2022-07-05T05:39:58;1002.35;;;27.34;48.34
54144;BME280;40050;47.324;18.792;2022-07-05T05:41:59;1002.37;;;27.34;48.70
54144;BME280;40050;47.324;18.792;2022-07-05T05:43:59;1002.37;;;27.34;48.37
54144;BME280;40050;47.324;18.792;2022-07-05T05:46:00;1002.36;;;27.34;48.57
54144;BME280;40050;47.324;18.792;2022-07-05T05:48:01;1002.46;;;27.34;48.33
54144;BME280;40050;47.324;18.792;2022-07-05T05:50:02;1002.47;;;27.33;48.27
54144;BME280;40050;47.324;18.792;2022-07-05T05:52:03;1002.44;;;27.33;48.21
54144;BME280;40050;47.324;18.792;2022-07-05T05:54:04;1002.44;;;27.33;48.41
54144;BME280;40050;47.324;18.792;2022-07-05T05:56:05;1002.47;;;27.33;48.60
54144;BME280;40050;47.324;18.792;2022-07-05T05:58:13;1002.46;;;27.35;48.77
54144;BME280;40050;47.324;18.792;2022-07-05T06:00:14;1002.41;;;27.37;48.11
54144;BME280;40050;47.324;18.792;2022-07-05T06:02:15;1002.44;;;27.34;48.39
54144;BME280;40050;47.324;18.792;2022-07-05T06:04:16;1002.39;;;27.36;48.13
54144;BME280;40050;47.324;18.792;2022-07-05T06:06:17;1002.47;;;27.40;48.22
54144;BME280;40050;47.324;18.792;2022-07-05T06:08:18;1002.41;;;27.38;48.29
54144;BME280;40050;47.324;18.792;2022-07-05T06:10:23;1002.40;;;27.39;48.30
54144;BME280;40050;47.324;18.792;2022-07-05T06:12:24;1002.45;;;27.43;48.49
54144;BME280;40050;47.324;18.792;2022-07-05T06:14:25;1002.37;;;27.45;48.75
54144;BME280;40050;47.324;18.792;2022-07-05T06:16:26;1002.42;;;27.43;48.41
54144;BME280;40050;47.324;18.792;2022-07-05T06:18:27;1002.44;;;27.47;49.02
54144;BME280;40050;47.324;18.792;2022-07-05T06:20:29;1002.42;;;27.48;48.66
54144;BME280;40050;47.324;18.792;2022-07-05T06:22:30;1002.36;;;27.52;48.51
54144;BME280;40050;47.324;18.792;2022-07-05T06:24:31;1002.42;;;27.55;48.71
54144;BME280;40050;47.324;18.792;2022-07-05T06:26:32;1002.36;;;27.67;48.73
54144;BME280;40050;47.324;18.792;2022-07-05T06:28:33;1002.42;;;27.77;48.41
54144;BME280;40050;47.324;18.792;2022-07-05T06:30:34;1002.37;;;27.85;48.01
54144;BME280;40050;47.324;18.792;2022-07-05T06:32:36;1002.45;;;27.97;48.07
54144;BME280;40050;47.324;18.792;2022-07-05T06:34:37;1002.48;;;28.01;46.84
54144;BME280;40050;47.324;18.792;2022-07-05T06:36:38;1002.42;;;28.05;47.07
54144;BME280;40050;47.324;18.792;2022-07-05T06:38:38;1002.45;;;28.12;47.15
54144;BME280;40050;47.324;18.792;2022-07-05T06:40:40;1002.42;;;28.13;46.90
54144;BME280;40050;47.324;18.792;2022-07-05T06:42:41;1002.41;;;28.12;46.80
54144;BME280;40050;47.324;18.792;2022-07-05T06:44:42;1002.43;;;28.14;47.18
54144;BME280;40050;47.324;18.792;2022-07-05T06:46:43;1002.39;;;28.21;47.35
54144;BME280;40050;47.324;18.792;2022-07-05T06:48:44;1002.45;;;28.29;47.46
54144;BME280;40050;47.324;18.792;2022-07-05T06:50:45;1002.35;;;28.47;47.24
54144;BME280;40050;47.324;18.792;2022-07-05T06:52:46;1002.40;;;28.63;47.34
54144;BME280;40050;47.324;18.792;2022-07-05T06:54:47;1002.47;;;28.83;47.02
54144;BME280;40050;47.324;18.792;2022-07-05T06:56:47;1002.48;;;28.93;46.71
54144;BME280;40050;47.324;18.792;2022-07-05T06:58:48;1002.55;;;28.99;46.05
54144;BME280;40050;47.324;18.792;2022-07-05T07:00:49;1002.52;;;28.97;46.08
54144;BME280;40050;47.324;18.792;2022-07-05T07:02:50;1002.54;;;28.97;45.89
54144;BME280;40050;47.324;18.792;2022-07-05T07:04:51;1002.48;;;28.98;46.32
54144;BME280;40050;47.324;18.792;2022-07-05T07:06:52;1002.36;;;29.07;46.67
54144;BME280;40050;47.324;18.792;2022-07-05T07:08:53;1002.31;;;29.22;46.35
54144;BME280;40050;47.324;18.792;2022-07-05T07:10:54;1002.25;;;29.40;46.22
54144;BME280;40050;47.324;18.792;2022-07-05T07:12:58;1002.30;;;29.53;46.05
54144;BME280;40050;47.324;18.792;2022-07-05T07:14:59;1002.32;;;29.58;45.58
54144;BME280;40050;47.324;18.792;2022-07-05T07:17:00;1002.36;;;29.58;45.26
54144;BME280;40050;47.324;18.792;2022-07-05T07:19:01;1002.30;;;29.60;44.80
54144;BME280;40050;47.324;18.792;2022-07-05T07:21:02;1002.30;;;29.57;44.74
54144;BME280;40050;47.324;18.792;2022-07-05T07:23:03;1002.28;;;29.60;45.16
54144;BME280;40050;47.324;18.792;2022-07-05T07:25:04;1002.33;;;29.69;45.30
54144;BME280;40050;47.324;18.792;2022-07-05T07:27:05;1002.39;;;29.71;44.88
54144;BME280;40050;47.324;18.792;2022-07-05T07:29:06;1002.35;;;29.75;44.40
54144;BME280;40050;47.324;18.792;2022-07-05T07:31:07;1002.33;;;29.66;44.17
54144;BME280;40050;47.324;18.792;2022-07-05T07:33:08;1002.36;;;29.62;43.96
54144;BME280;40050;47.324;18.792;2022-07-05T07:35:09;1002.40;;;29.60;44.23
54144;BME280;40050;47.324;18.792;2022-07-05T07:37:10;1002.38;;;29.53;44.08
54144;BME280;40050;47.324;18.792;2022-07-05T07:39:11;1002.40;;;29.47;44.29
54144;BME280;40050;47.324;18.792;2022-07-05T07:41:12;1002.45;;;29.43;44.23
54144;BME280;40050;47.324;18.792;2022-07-05T07:43:12;1002.51;;;29.42;44.49
54144;BME280;40050;47.324;18.792;2022-07-05T07:45:13;1002.50;;;29.39;44.62
54144;BME280;40050;47.324;18.792;2022-07-05T07:47:14;1002.46;;;29.40;44.35
54144;BME280;40050;47.324;18.792;2022-07-05T07:49:15;1002.45;;;29.35;44.96
54144;BME280;40050;47.324;18.792;2022-07-05T07:51:16;1002.42;;;29.29;44.86
54144;BME280;40050;47.324;18.792;2022-07-05T07:53:17;1002.53;;;29.34;45.00
54144;BME280;40050;47.324;18.792;2022-07-05T07:55:18;1002.48;;;29.36;44.76
54144;BME280;40050;47.324;18.792;2022-07-05T07:57:19;1002.48;;;29.35;44.83
54144;BME280;40050;47.324;18.792;2022-07-05T07:59:20;1002.53;;;29.35;44.85
54144;BME280;40050;47.324;18.792;2022-07-05T08:01:21;1002.49;;;29.34;44.83
54144;BME280;40050;47.324;18.792;2022-07-05T08:03:22;1002.52;;;29.36;45.04
54144;BME280;40050;47.324;18.792;2022-07-05T08:05:23;1002.55;;;29.45;45.36
54144;BME280;40050;47.324;18.792;2022-07-05T08:07:24;1002.59;;;29.56;45.64
54144;BME280;40050;47.324;18.792;2022-07-05T08:09:25;1002.67;;;29.72;46.00
54144;BME280;40050;47.324;18.792;2022-07-05T08:11:26;1002.70;;;29.84;45.31
54144;BME280;40050;47.324;18.792;2022-07-05T08:13:27;1002.71;;;29.93;45.09
54144;BME280;40050;47.324;18.792;2022-07-05T08:15:27;1002.66;;;29.92;44.95
54144;BME280;40050;47.324;18.792;2022-07-05T08:17:28;1002.68;;;29.96;44.34
54144;BME280;40050;47.324;18.792;2022-07-05T08:19:29;1002.62;;;29.98;44.62
54144;BME280;40050;47.324;18.792;2022-07-05T08:21:30;1002.63;;;30.03;44.51
54144;BME280;40050;47.324;18.792;2022-07-05T08:23:31;1002.66;;;30.06;45.04
54144;BME280;40050;47.324;18.792;2022-07-05T08:25:32;1002.62;;;30.04;44.84
54144;BME280;40050;47.324;18.792;2022-07-05T08:27:33;1002.67;;;29.99;45.02
54144;BME280;40050;47.324;18.792;2022-07-05T08:29:34;1002.74;;;30.00;44.93
54144;BME280;40050;47.324;18.792;2022-07-05T08:31:36;1002.75;;;29.97;45.19
54144;BME280;40050;47.324;18.792;2022-07-05T08:33:37;1002.81;;;30.02;45.76
54144;BME280;40050;47.324;18.792;2022-07-05T08:35:38;1002.84;;;30.06;45.63
54144;BME280;40050;47.324;18.792;2022-07-05T08:37:39;1002.87;;;30.01;44.91
54144;BME280;40050;47.324;18.792;2022-07-05T08:39:40;1002.88;;;29.95;45.13
54144;BME280;40050;47.324;18.792;2022-07-05T08:41:41;1002.95;;;29.92;45.49
54144;BME280;40050;47.324;18.792;2022-07-05T08:43:43;1002.88;;;29.86;44.82
54144;BME280;40050;47.324;18.792;2022-07-05T08:45:45;1002.94;;;29.71;45.11
54144;BME280;40050;47.324;18.792;2022-07-05T08:47:46;1002.89;;;29.61;45.25
54144;BME280;40050;47.324;18.792;2022-07-05T08:49:48;1002.94;;;29.54;45.85
54144;BME280;40050;47.324;18.792;2022-07-05T08:51:50;1002.90;;;29.44;46.02
54144;BME280;40050;47.324;18.792;2022-07-05T08:53:52;1002.86;;;29.34;46.25
54144;BME280;40050;47.324;18.792;2022-07-05T08:55:53;1002.77;;;29.26;46.35
54144;BME280;40050;47.324;18.792;2022-07-05T08:57:54;1002.74;;;29.21;46.73
54144;BME280;40050;47.324;18.792;2022-07-05T08:59:55;1002.75;;;29.18;46.92
54144;BME280;40050;47.324;18.792;2022-07-05T09:01:56;1002.71;;;29.13;46.67
54144;BME280;40050;47.324;18.792;2022-07-05T09:03:57;1002.82;;;29.10;47.01
54144;BME280;40050;47.324;18.792;2022-07-05T09:06:01;1002.87;;;29.08;47.50
54144;BME280;40050;47.324;18.792;2022-07-05T09:08:02;1002.87;;;29.02;47.39
54144;BME280;40050;47.324;18.792;2022-07-05T09:10:04;1002.91;;;28.94;47.55
54144;BME280;40050;47.324;18.792;2022-07-05T09:12:06;1002.92;;;28.94;48.04
54144;BME280;40050;47.324;18.792;2022-07-05T09:14:17;1002.80;;;28.94;48.29
54144;BME280;40050;47.324;18.792;2022-07-05T09:16:19;1002.87;;;28.89;48.62
54144;BME280;40050;47.324;18.792;2022-07-05T09:18:54;1002.93;;;28.82;49.12
54144;BME280;40050;47.324;18.792;2022-07-05T09:20:38;1002.92;;;28.69;49.45
54144;BME280;40050;47.324;18.792;2022-07-05T09:22:49;1003.03;;;28.62;49.54
54144;BME280;40050;47.324;18.792;2022-07-05T09:24:50;1002.98;;;28.45;50.13
54144;BME280;40050;47.324;18.792;2022-07-05T09:26:51;1002.99;;;28.27;51.11
54144;BME280;40050;47.324;18.792;2022-07-05T09:28:56;1003.04;;;28.15;52.42
54144;BME280;40050;47.324;18.792;2022-07-05T09:30:57;1003.16;;;27.98;53.91
54144;BME280;40050;47.324;18.792;2022-07-05T09:33:08;1003.22;;;27.92;54.84
54144;BME280;40050;47.324;18.792;2022-07-05T09:35:19;1003.25;;;27.78;55.51
54144;BME280;40050;47.324;18.792;2022-07-05T09:37:20;1003.21;;;27.67;56.46
54144;BME280;40050;47.324;18.792;2022-07-05T09:39:34;1003.18;;;27.61;56.14
54144;BME280;40050;47.324;18.792;2022-07-05T09:41:33;1003.23;;;27.58;56.97
54144;BME280;40050;47.324;18.792;2022-07-05T09:43:34;1003.34;;;27.59;57.61
54144;BME280;40050;47.324;18.792;2022-07-05T09:45:38;1003.29;;;27.60;57.19
54144;BME280;40050;47.324;18.792;2022-07-05T09:47:39;1003.27;;;27.55;57.26
54144;BME280;40050;47.324;18.792;2022-07-05T09:49:43;1003.28;;;27.55;57.15
54144;BME280;40050;47.324;18.792;2022-07-05T09:51:47;1003.38;;;27.53;57.22
54144;BME280;40050;47.324;18.792;2022-07-05T09:53:49;1003.39;;;27.54;56.75
54144;BME280;40050;47.324;18.792;2022-07-05T09:56:00;1003.37;;;27.51;56.80
54144;BME280;40050;47.324;18.792;2022-07-05T09:58:01;1003.32;;;27.50;56.65
54144;BME280;40050;47.324;18.792;2022-07-05T10:00:05;1003.31;;;27.49;56.58
54144;BME280;40050;47.324;18.792;2022-07-05T10:02:07;1003.30;;;27.45;56.66
54144;BME280;40050;47.324;18.792;2022-07-05T10:04:08;1003.33;;;27.42;56.98
54144;BME280;40050;47.324;18.792;2022-07-05T10:06:09;1003.35;;;27.43;56.76
54144;BME280;40050;47.324;18.792;2022-07-05T10:08:10;1003.49;;;27.42;56.89
54144;BME280;40050;47.324;18.792;2022-07-05T10:10:19;1003.50;;;27.39;56.64
54144;BME280;40050;47.324;18.792;2022-07-05T10:12:21;1003.54;;;27.36;56.87
54144;BME280;40050;47.324;18.792;2022-07-05T10:14:22;1003.55;;;27.35;56.42
54144;BME280;40050;47.324;18.792;2022-07-05T10:16:22;1003.58;;;27.34;56.70
54144;BME280;40050;47.324;18.792;2022-07-05T10:18:23;1003.59;;;27.32;56.80
54144;BME280;40050;47.324;18.792;2022-07-05T10:20:32;1003.63;;;27.39;56.62
54144;BME280;40050;47.324;18.792;2022-07-05T10:22:33;1003.59;;;27.33;56.16
54144;BME280;40050;47.324;18.792;2022-07-05T10:24:35;1003.65;;;27.35;56.23
54144;BME280;40050;47.324;18.792;2022-07-05T10:26:36;1003.65;;;27.38;56.18
54144;BME280;40050;47.324;18.792;2022-07-05T10:28:37;1003.65;;;27.34;56.88
54144;BME280;40050;47.324;18.792;2022-07-05T10:30:38;1003.70;;;27.33;57.34
54144;BME280;40050;47.324;18.792;2022-07-05T10:32:40;1003.65;;;27.35;57.68
54144;BME280;40050;47.324;18.792;2022-07-05T10:34:41;1003.68;;;27.35;57.10
54144;BME280;40050;47.324;18.792;2022-07-05T10:36:43;1003.66;;;27.45;56.69
54144;BME280;40050;47.324;18.792;2022-07-05T10:38:56;1003.70;;;27.46;56.45
54144;BME280;40050;47.324;18.792;2022-07-05T10:40:58;1003.70;;;27.46;56.54
54144;BME280;40050;47.324;18.792;2022-07-05T10:43:00;1003.67;;;27.41;55.92
54144;BME280;40050;47.324;18.792;2022-07-05T10:45:01;1003.80;;;27.36;55.27
54144;BME280;40050;47.324;18.792;2022-07-05T10:47:08;1003.86;;;27.27;55.46
54144;BME280;40050;47.324;18.792;2022-07-05T10:49:10;1003.90;;;27.29;55.21
54144;BME280;40050;47.324;18.792;2022-07-05T10:51:14;1003.96;;;27.22;55.90
54144;BME280;40050;47.324;18.792;2022-07-05T10:53:16;1003.96;;;27.26;56.55
54144;BME280;40050;47.324;18.792;2022-07-05T10:55:21;1003.91;;;27.30;56.13
54144;BME280;40050;47.324;18.792;2022-07-05T10:57:23;1003.87;;;27.36;56.41
54144;BME280;40050;47.324;18.792;2022-07-05T10:59:24;1003.79;;;27.41;55.85
54144;BME280;40050;47.324;18.792;2022-07-05T11:01:34;1003.83;;;27.43;54.83
54144;BME280;40050;47.324;18.792;2022-07-05T11:03:35;1003.77;;;27.41;54.56